首页
METAR-TAF:

METAR-TAF

机场 :

史密斯堡, 西北特區, 加拿大

纬度: 60-01N, 经度: 111-57W, 海拔: 203米

当前天气观测

该预报发布于28分钟前的13:00 UTC
风速7节,风向南转南东
温度 19°C
湿度 56%
气压 1004 hPa
能見度: 19.3公里
少量云层高于10000英尺
阴天层高于24000英尺

METAR: CYSM 181300Z 15007KT 12SM FEW100 OVC240 19/10 A2964 RMK FU2CI6 FU SLP040 DENSITY ALT 1600FT

时间: 07:28 (13:28 UTC)

预报

该预报发布于1小时和50分钟前的11:38 UTC
预报有效从18日的 12点(UTC)到 18日的 24点(UTC)
风速3节,风向多变
能見度: 10公里
多云层高于24000英尺
从 18日的 1600点(UTC)
风速6节,风向
能見度: 10公里
多云层高于8000英尺
短暂存在
从 18日的 16点(UTC)到 18日的 24点(UTC)
能見度: 10公里
多云层高于8000英尺, 积雨云.
附近有雷暴

TAF: CYSM 181138Z 1812/1824 VRB03KT P6SM BKN240 FM181600 18006KT P6SM BKN080 TEMPO 1816/1824 P6SM VCTS BKN080CB RMK NXT FCST BY 181800Z

超过4000个机场的气象观测和天气预报(METAR&TAF报告)。

可查询的气象台以黄色和红色小点在地图上表示。

将鼠标移到小点上方,可查看气象台名称。

然后点击查看天气观测和预报。

如需切换地图:点击带黑十字的绿色按钮放大地图;点击带横线的绿色按钮缩小地图;或者点击绿色箭头查看邻近地区的地图。


METAR-TAF: